sensor_id;sensor_type;location;lat;lon;timestamp;P1;durP1;ratioP1;P2;durP2;ratioP2
24409;SDS011;12543;53.364;-1.504;2024-02-28T00:00:44;17.38;;;4.57;;
24409;SDS011;12543;53.364;-1.504;2024-02-28T00:03:12;17.75;;;4.53;;
24409;SDS011;12543;53.364;-1.504;2024-02-28T00:05:40;18.13;;;5.45;;
24409;SDS011;12543;53.364;-1.504;2024-02-28T00:08:07;16.23;;;5.13;;
24409;SDS011;12543;53.364;-1.504;2024-02-28T00:10:38;15.35;;;5.13;;
24409;SDS011;12543;53.364;-1.504;2024-02-28T00:13:14;13.00;;;4.43;;
24409;SDS011;12543;53.364;-1.504;2024-02-28T00:15:42;15.25;;;4.55;;
24409;SDS011;12543;53.364;-1.504;2024-02-28T00:18:10;16.88;;;5.15;;
24409;SDS011;12543;53.364;-1.504;2024-02-28T00:20:38;18.05;;;4.90;;
24409;SDS011;12543;53.364;-1.504;2024-02-28T00:23:05;16.85;;;5.80;;
24409;SDS011;12543;53.364;-1.504;2024-02-28T00:25:33;13.40;;;4.55;;
24409;SDS011;12543;53.364;-1.504;2024-02-28T00:28:01;21.25;;;5.72;;
24409;SDS011;12543;53.364;-1.504;2024-02-28T00:30:29;22.02;;;5.70;;
24409;SDS011;12543;53.364;-1.504;2024-02-28T00:32:59;18.50;;;6.13;;
24409;SDS011;12543;53.364;-1.504;2024-02-28T00:35:27;20.25;;;6.05;;
24409;SDS011;12543;53.364;-1.504;2024-02-28T00:37:55;26.42;;;7.63;;
24409;SDS011;12543;53.364;-1.504;2024-02-28T00:40:22;21.70;;;6.07;;
24409;SDS011;12543;53.364;-1.504;2024-02-28T00:42:51;21.27;;;6.70;;
24409;SDS011;12543;53.364;-1.504;2024-02-28T00:45:19;27.27;;;7.32;;
24409;SDS011;12543;53.364;-1.504;2024-02-28T00:47:47;25.57;;;6.97;;
24409;SDS011;12543;53.364;-1.504;2024-02-28T00:50:15;29.88;;;7.78;;
24409;SDS011;12543;53.364;-1.504;2024-02-28T00:52:42;23.23;;;6.53;;
24409;SDS011;12543;53.364;-1.504;2024-02-28T00:55:10;26.30;;;6.13;;
24409;SDS011;12543;53.364;-1.504;2024-02-28T00:57:37;29.10;;;6.25;;
24409;SDS011;12543;53.364;-1.504;2024-02-28T01:00:05;24.25;;;6.75;;
24409;SDS011;12543;53.364;-1.504;2024-02-28T01:02:33;26.00;;;5.82;;
24409;SDS011;12543;53.364;-1.504;2024-02-28T01:05:00;19.15;;;6.18;;
24409;SDS011;12543;53.364;-1.504;2024-02-28T01:07:28;19.00;;;4.82;;
24409;SDS011;12543;53.364;-1.504;2024-02-28T01:09:55;20.17;;;5.55;;
24409;SDS011;12543;53.364;-1.504;2024-02-28T01:12:23;16.77;;;5.23;;
24409;SDS011;12543;53.364;-1.504;2024-02-28T01:14:54;19.98;;;4.97;;
24409;SDS011;12543;53.364;-1.504;2024-02-28T01:17:23;24.40;;;5.68;;
24409;SDS011;12543;53.364;-1.504;2024-02-28T01:19:51;15.53;;;4.73;;
24409;SDS011;12543;53.364;-1.504;2024-02-28T01:22:18;20.42;;;5.63;;
24409;SDS011;12543;53.364;-1.504;2024-02-28T01:24:46;16.88;;;4.35;;
24409;SDS011;12543;53.364;-1.504;2024-02-28T01:27:13;11.25;;;3.92;;
24409;SDS011;12543;53.364;-1.504;2024-02-28T01:29:41;16.17;;;4.07;;
24409;SDS011;12543;53.364;-1.504;2024-02-28T01:32:09;15.52;;;4.75;;
24409;SDS011;12543;53.364;-1.504;2024-02-28T01:34:36;16.52;;;4.95;;
24409;SDS011;12543;53.364;-1.504;2024-02-28T01:37:04;16.02;;;6.15;;
24409;SDS011;12543;53.364;-1.504;2024-02-28T01:39:31;15.73;;;4.95;;
24409;SDS011;12543;53.364;-1.504;2024-02-28T01:41:59;18.27;;;5.10;;
24409;SDS011;12543;53.364;-1.504;2024-02-28T01:44:26;14.68;;;5.07;;
24409;SDS011;12543;53.364;-1.504;2024-02-28T01:46:54;19.77;;;5.57;;
24409;SDS011;12543;53.364;-1.504;2024-02-28T01:49:23;15.20;;;5.85;;
24409;SDS011;12543;53.364;-1.504;2024-02-28T01:51:51;12.75;;;5.60;;
24409;SDS011;12543;53.364;-1.504;2024-02-28T01:54:20;13.35;;;5.95;;
24409;SDS011;12543;53.364;-1.504;2024-02-28T01:56:50;17.77;;;6.40;;
24409;SDS011;12543;53.364;-1.504;2024-02-28T01:59:18;17.42;;;5.60;;
24409;SDS011;12543;53.364;-1.504;2024-02-28T02:01:45;14.68;;;5.50;;
24409;SDS011;12543;53.364;-1.504;2024-02-28T02:04:13;20.33;;;5.43;;
24409;SDS011;12543;53.364;-1.504;2024-02-28T02:06:42;19.05;;;6.22;;
24409;SDS011;12543;53.364;-1.504;2024-02-28T02:09:14;20.20;;;6.35;;
24409;SDS011;12543;53.364;-1.504;2024-02-28T02:11:45;17.80;;;6.32;;
24409;SDS011;12543;53.364;-1.504;2024-02-28T02:14:13;23.67;;;7.97;;
24409;SDS011;12543;53.364;-1.504;2024-02-28T02:16:40;12.80;;;6.03;;
24409;SDS011;12543;53.364;-1.504;2024-02-28T02:19:08;20.38;;;6.78;;
24409;SDS011;12543;53.364;-1.504;2024-02-28T02:21:49;17.73;;;6.57;;
24409;SDS011;12543;53.364;-1.504;2024-02-28T02:24:17;22.63;;;7.10;;
24409;SDS011;12543;53.364;-1.504;2024-02-28T02:26:45;18.92;;;6.40;;
24409;SDS011;12543;53.364;-1.504;2024-02-28T02:29:13;23.95;;;6.72;;
24409;SDS011;12543;53.364;-1.504;2024-02-28T02:31:40;17.70;;;5.85;;
24409;SDS011;12543;53.364;-1.504;2024-02-28T02:34:10;15.10;;;5.47;;
24409;SDS011;12543;53.364;-1.504;2024-02-28T02:36:37;13.93;;;5.00;;
24409;SDS011;12543;53.364;-1.504;2024-02-28T02:39:05;14.35;;;5.80;;
24409;SDS011;12543;53.364;-1.504;2024-02-28T02:41:34;18.95;;;5.60;;
24409;SDS011;12543;53.364;-1.504;2024-02-28T02:44:02;20.13;;;4.97;;
24409;SDS011;12543;53.364;-1.504;2024-02-28T02:46:31;19.10;;;5.95;;
24409;SDS011;12543;53.364;-1.504;2024-02-28T02:48:59;17.02;;;6.03;;
24409;SDS011;12543;53.364;-1.504;2024-02-28T02:51:26;17.60;;;5.70;;
24409;SDS011;12543;53.364;-1.504;2024-02-28T02:53:54;15.50;;;5.20;;
24409;SDS011;12543;53.364;-1.504;2024-02-28T02:56:21;14.80;;;5.00;;
24409;SDS011;12543;53.364;-1.504;2024-02-28T02:58:49;15.77;;;5.13;;
24409;SDS011;12543;53.364;-1.504;2024-02-28T03:01:17;19.23;;;5.45;;
24409;SDS011;12543;53.364;-1.504;2024-02-28T03:03:49;14.85;;;5.53;;
24409;SDS011;12543;53.364;-1.504;2024-02-28T03:06:16;13.77;;;5.13;;
24409;SDS011;12543;53.364;-1.504;2024-02-28T03:08:44;18.20;;;5.63;;
24409;SDS011;12543;53.364;-1.504;2024-02-28T03:11:13;14.25;;;5.00;;
24409;SDS011;12543;53.364;-1.504;2024-02-28T03:13:44;13.75;;;4.63;;
24409;SDS011;12543;53.364;-1.504;2024-02-28T03:16:12;13.27;;;4.32;;
24409;SDS011;12543;53.364;-1.504;2024-02-28T03:18:39;13.25;;;4.40;;
24409;SDS011;12543;53.364;-1.504;2024-02-28T03:21:07;15.00;;;4.53;;
24409;SDS011;12543;53.364;-1.504;2024-02-28T03:23:34;15.60;;;4.97;;
24409;SDS011;12543;53.364;-1.504;2024-02-28T03:26:02;14.88;;;5.03;;
24409;SDS011;12543;53.364;-1.504;2024-02-28T03:28:30;20.45;;;6.03;;
24409;SDS011;12543;53.364;-1.504;2024-02-28T03:30:57;15.33;;;5.47;;
24409;SDS011;12543;53.364;-1.504;2024-02-28T03:33:25;15.03;;;5.53;;
24409;SDS011;12543;53.364;-1.504;2024-02-28T03:35:53;15.60;;;5.22;;
24409;SDS011;12543;53.364;-1.504;2024-02-28T03:38:20;12.95;;;5.22;;
24409;SDS011;12543;53.364;-1.504;2024-02-28T03:40:48;16.37;;;5.80;;
24409;SDS011;12543;53.364;-1.504;2024-02-28T03:43:15;14.25;;;5.50;;
24409;SDS011;12543;53.364;-1.504;2024-02-28T03:45:43;13.73;;;4.97;;
24409;SDS011;12543;53.364;-1.504;2024-02-28T03:48:11;13.82;;;4.82;;
24409;SDS011;12543;53.364;-1.504;2024-02-28T03:50:39;13.10;;;5.07;;
24409;SDS011;12543;53.364;-1.504;2024-02-28T03:53:06;12.45;;;4.85;;
24409;SDS011;12543;53.364;-1.504;2024-02-28T03:55:34;12.83;;;4.73;;
24409;SDS011;12543;53.364;-1.504;2024-02-28T03:58:01;12.93;;;4.85;;
24409;SDS011;12543;53.364;-1.504;2024-02-28T04:00:29;14.95;;;5.25;;
24409;SDS011;12543;53.364;-1.504;2024-02-28T04:02:57;15.83;;;5.17;;
24409;SDS011;12543;53.364;-1.504;2024-02-28T04:05:24;14.32;;;5.07;;
24409;SDS011;12543;53.364;-1.504;2024-02-28T04:07:52;15.30;;;4.87;;
24409;SDS011;12543;53.364;-1.504;2024-02-28T04:10:19;13.52;;;4.93;;
24409;SDS011;12543;53.364;-1.504;2024-02-28T04:12:47;16.33;;;5.43;;
24409;SDS011;12543;53.364;-1.504;2024-02-28T04:15:15;14.10;;;4.50;;
24409;SDS011;12543;53.364;-1.504;2024-02-28T04:17:42;13.93;;;4.73;;
24409;SDS011;12543;53.364;-1.504;2024-02-28T04:20:10;11.65;;;4.88;;
24409;SDS011;12543;53.364;-1.504;2024-02-28T04:22:38;14.43;;;4.93;;
24409;SDS011;12543;53.364;-1.504;2024-02-28T04:25:07;13.63;;;4.35;;
24409;SDS011;12543;53.364;-1.504;2024-02-28T04:27:35;16.38;;;5.28;;
24409;SDS011;12543;53.364;-1.504;2024-02-28T04:30:03;15.00;;;4.82;;
24409;SDS011;12543;53.364;-1.504;2024-02-28T04:32:31;16.08;;;5.35;;
24409;SDS011;12543;53.364;-1.504;2024-02-28T04:34:58;16.88;;;6.70;;
24409;SDS011;12543;53.364;-1.504;2024-02-28T04:37:26;17.45;;;6.80;;
24409;SDS011;12543;53.364;-1.504;2024-02-28T04:39:54;20.43;;;6.73;;
24409;SDS011;12543;53.364;-1.504;2024-02-28T04:42:21;14.27;;;5.30;;
24409;SDS011;12543;53.364;-1.504;2024-02-28T04:44:52;16.20;;;5.53;;
24409;SDS011;12543;53.364;-1.504;2024-02-28T04:47:19;12.35;;;5.22;;
24409;SDS011;12543;53.364;-1.504;2024-02-28T04:49:58;13.50;;;4.93;;
24409;SDS011;12543;53.364;-1.504;2024-02-28T04:52:26;11.98;;;4.55;;
24409;SDS011;12543;53.364;-1.504;2024-02-28T04:54:53;18.15;;;5.38;;
24409;SDS011;12543;53.364;-1.504;2024-02-28T05:02:19;13.70;;;4.57;;
24409;SDS011;12543;53.364;-1.504;2024-02-28T05:04:48;13.82;;;4.80;;
24409;SDS011;12543;53.364;-1.504;2024-02-28T05:07:16;11.30;;;4.03;;
24409;SDS011;12543;53.364;-1.504;2024-02-28T05:09:44;9.75;;;3.65;;
24409;SDS011;12543;53.364;-1.504;2024-02-28T05:12:12;14.95;;;4.18;;
24409;SDS011;12543;53.364;-1.504;2024-02-28T05:14:40;12.03;;;3.73;;
24409;SDS011;12543;53.364;-1.504;2024-02-28T05:17:08;18.15;;;4.53;;
24409;SDS011;12543;53.364;-1.504;2024-02-28T05:19:35;11.90;;;4.07;;
24409;SDS011;12543;53.364;-1.504;2024-02-28T05:22:03;10.45;;;3.28;;
24409;SDS011;12543;53.364;-1.504;2024-02-28T05:24:31;9.40;;;3.55;;
24409;SDS011;12543;53.364;-1.504;2024-02-28T05:26:58;12.88;;;3.70;;
24409;SDS011;12543;53.364;-1.504;2024-02-28T05:29:25;8.88;;;3.30;;
24409;SDS011;12543;53.364;-1.504;2024-02-28T05:31:53;11.05;;;3.58;;
24409;SDS011;12543;53.364;-1.504;2024-02-28T05:34:20;9.95;;;3.30;;
24409;SDS011;12543;53.364;-1.504;2024-02-28T05:36:48;12.02;;;3.00;;
24409;SDS011;12543;53.364;-1.504;2024-02-28T05:39:17;9.60;;;3.38;;
24409;SDS011;12543;53.364;-1.504;2024-02-28T05:41:44;12.52;;;3.33;;
24409;SDS011;12543;53.364;-1.504;2024-02-28T05:46:40;15.52;;;3.60;;
24409;SDS011;12543;53.364;-1.504;2024-02-28T05:49:08;11.60;;;3.90;;
24409;SDS011;12543;53.364;-1.504;2024-02-28T05:51:36;14.52;;;3.58;;
24409;SDS011;12543;53.364;-1.504;2024-02-28T05:54:03;17.10;;;3.88;;
24409;SDS011;12543;53.364;-1.504;2024-02-28T05:56:31;13.30;;;3.70;;
24409;SDS011;12543;53.364;-1.504;2024-02-28T05:58:59;11.38;;;4.13;;
24409;SDS011;12543;53.364;-1.504;2024-02-28T06:01:26;14.02;;;4.53;;
24409;SDS011;12543;53.364;-1.504;2024-02-28T06:03:54;13.88;;;4.93;;
24409;SDS011;12543;53.364;-1.504;2024-02-28T06:06:21;17.17;;;5.83;;
24409;SDS011;12543;53.364;-1.504;2024-02-28T06:08:49;12.52;;;4.50;;
24409;SDS011;12543;53.364;-1.504;2024-02-28T06:11:16;12.30;;;4.00;;
24409;SDS011;12543;53.364;-1.504;2024-02-28T06:13:44;12.05;;;3.40;;
24409;SDS011;12543;53.364;-1.504;2024-02-28T06:16:14;10.48;;;3.40;;
24409;SDS011;12543;53.364;-1.504;2024-02-28T06:18:42;14.10;;;4.13;;
24409;SDS011;12543;53.364;-1.504;2024-02-28T06:21:13;14.67;;;3.80;;
24409;SDS011;12543;53.364;-1.504;2024-02-28T06:23:41;13.77;;;3.60;;
24409;SDS011;12543;53.364;-1.504;2024-02-28T06:26:10;12.65;;;3.47;;
24409;SDS011;12543;53.364;-1.504;2024-02-28T06:28:44;12.48;;;4.10;;
24409;SDS011;12543;53.364;-1.504;2024-02-28T06:31:15;10.50;;;3.55;;
24409;SDS011;12543;53.364;-1.504;2024-02-28T06:33:43;9.55;;;3.65;;
24409;SDS011;12543;53.364;-1.504;2024-02-28T06:36:11;12.50;;;3.88;;
24409;SDS011;12543;53.364;-1.504;2024-02-28T06:38:38;15.40;;;4.50;;
24409;SDS011;12543;53.364;-1.504;2024-02-28T06:41:06;12.18;;;3.80;;
24409;SDS011;12543;53.364;-1.504;2024-02-28T06:43:34;11.35;;;3.75;;
24409;SDS011;12543;53.364;-1.504;2024-02-28T06:46:04;10.85;;;3.30;;
24409;SDS011;12543;53.364;-1.504;2024-02-28T06:48:32;13.83;;;3.80;;
24409;SDS011;12543;53.364;-1.504;2024-02-28T06:51:00;10.38;;;3.65;;
24409;SDS011;12543;53.364;-1.504;2024-02-28T06:53:33;11.45;;;3.70;;
24409;SDS011;12543;53.364;-1.504;2024-02-28T06:56:01;12.57;;;3.80;;
24409;SDS011;12543;53.364;-1.504;2024-02-28T06:58:30;13.13;;;3.40;;
24409;SDS011;12543;53.364;-1.504;2024-02-28T07:00:57;10.68;;;3.55;;
24409;SDS011;12543;53.364;-1.504;2024-02-28T07:03:27;8.70;;;2.38;;
24409;SDS011;12543;53.364;-1.504;2024-02-28T07:05:55;9.85;;;3.20;;
24409;SDS011;12543;53.364;-1.504;2024-02-28T07:08:22;9.25;;;2.67;;
24409;SDS011;12543;53.364;-1.504;2024-02-28T07:10:50;9.20;;;3.22;;
24409;SDS011;12543;53.364;-1.504;2024-02-28T07:13:20;10.32;;;3.30;;
24409;SDS011;12543;53.364;-1.504;2024-02-28T07:15:48;12.77;;;3.50;;
24409;SDS011;12543;53.364;-1.504;2024-02-28T07:18:15;13.73;;;4.07;;
24409;SDS011;12543;53.364;-1.504;2024-02-28T07:20:43;15.23;;;4.03;;
24409;SDS011;12543;53.364;-1.504;2024-02-28T07:23:11;9.00;;;2.63;;
24409;SDS011;12543;53.364;-1.504;2024-02-28T07:25:38;14.53;;;3.57;;
24409;SDS011;12543;53.364;-1.504;2024-02-28T07:28:07;11.57;;;3.08;;
24409;SDS011;12543;53.364;-1.504;2024-02-28T07:30:35;11.33;;;3.20;;
24409;SDS011;12543;53.364;-1.504;2024-02-28T07:33:04;12.23;;;2.95;;
24409;SDS011;12543;53.364;-1.504;2024-02-28T07:35:32;8.73;;;2.85;;
24409;SDS011;12543;53.364;-1.504;2024-02-28T07:37:59;11.53;;;3.67;;
24409;SDS011;12543;53.364;-1.504;2024-02-28T07:40:27;9.98;;;3.35;;
24409;SDS011;12543;53.364;-1.504;2024-02-28T07:42:54;14.00;;;3.10;;
24409;SDS011;12543;53.364;-1.504;2024-02-28T07:45:22;12.98;;;2.78;;
24409;SDS011;12543;53.364;-1.504;2024-02-28T07:47:50;10.65;;;3.35;;
24409;SDS011;12543;53.364;-1.504;2024-02-28T07:50:17;7.57;;;2.85;;
24409;SDS011;12543;53.364;-1.504;2024-02-28T07:52:45;10.73;;;2.83;;
24409;SDS011;12543;53.364;-1.504;2024-02-28T07:55:12;11.93;;;3.28;;
24409;SDS011;12543;53.364;-1.504;2024-02-28T07:57:40;11.68;;;3.50;;
24409;SDS011;12543;53.364;-1.504;2024-02-28T08:00:07;12.10;;;3.15;;
24409;SDS011;12543;53.364;-1.504;2024-02-28T08:02:38;12.20;;;3.25;;
24409;SDS011;12543;53.364;-1.504;2024-02-28T08:05:06;13.20;;;3.33;;
24409;SDS011;12543;53.364;-1.504;2024-02-28T08:07:34;15.57;;;3.97;;
24409;SDS011;12543;53.364;-1.504;2024-02-28T08:10:02;13.00;;;3.05;;
24409;SDS011;12543;53.364;-1.504;2024-02-28T08:12:34;11.13;;;2.70;;
24409;SDS011;12543;53.364;-1.504;2024-02-28T08:15:02;11.05;;;2.92;;
24409;SDS011;12543;53.364;-1.504;2024-02-28T08:17:30;10.98;;;3.20;;
24409;SDS011;12543;53.364;-1.504;2024-02-28T08:19:58;13.68;;;3.60;;
24409;SDS011;12543;53.364;-1.504;2024-02-28T08:22:25;14.75;;;3.05;;
24409;SDS011;12543;53.364;-1.504;2024-02-28T08:24:53;18.15;;;4.10;;
24409;SDS011;12543;53.364;-1.504;2024-02-28T08:27:20;12.57;;;3.23;;
24409;SDS011;12543;53.364;-1.504;2024-02-28T08:29:50;12.52;;;3.22;;
24409;SDS011;12543;53.364;-1.504;2024-02-28T08:32:17;7.00;;;2.72;;
24409;SDS011;12543;53.364;-1.504;2024-02-28T08:34:47;12.20;;;3.00;;
24409;SDS011;12543;53.364;-1.504;2024-02-28T08:37:15;9.67;;;2.90;;
24409;SDS011;12543;53.364;-1.504;2024-02-28T08:39:44;11.10;;;2.92;;
24409;SDS011;12543;53.364;-1.504;2024-02-28T08:42:11;13.30;;;3.30;;
24409;SDS011;12543;53.364;-1.504;2024-02-28T08:44:39;16.98;;;3.28;;
24409;SDS011;12543;53.364;-1.504;2024-02-28T08:47:06;7.55;;;2.55;;
24409;SDS011;12543;53.364;-1.504;2024-02-28T08:49:38;7.45;;;2.85;;
24409;SDS011;12543;53.364;-1.504;2024-02-28T08:52:06;9.43;;;3.03;;
24409;SDS011;12543;53.364;-1.504;2024-02-28T08:54:33;9.87;;;2.90;;
24409;SDS011;12543;53.364;-1.504;2024-02-28T08:57:01;11.87;;;3.67;;
24409;SDS011;12543;53.364;-1.504;2024-02-28T08:59:30;13.90;;;3.45;;
24409;SDS011;12543;53.364;-1.504;2024-02-28T09:01:57;10.55;;;3.30;;
24409;SDS011;12543;53.364;-1.504;2024-02-28T09:04:25;11.45;;;2.75;;
24409;SDS011;12543;53.364;-1.504;2024-02-28T09:06:52;8.95;;;2.83;;
24409;SDS011;12543;53.364;-1.504;2024-02-28T09:09:20;12.88;;;3.15;;
24409;SDS011;12543;53.364;-1.504;2024-02-28T09:11:47;15.80;;;3.63;;
24409;SDS011;12543;53.364;-1.504;2024-02-28T09:14:15;13.38;;;2.92;;
24409;SDS011;12543;53.364;-1.504;2024-02-28T09:16:43;16.38;;;3.47;;
24409;SDS011;12543;53.364;-1.504;2024-02-28T09:19:10;11.95;;;3.67;;
24409;SDS011;12543;53.364;-1.504;2024-02-28T09:21:38;16.52;;;3.72;;
24409;SDS011;12543;53.364;-1.504;2024-02-28T09:24:05;12.52;;;3.15;;
24409;SDS011;12543;53.364;-1.504;2024-02-28T09:26:33;14.38;;;3.40;;
24409;SDS011;12543;53.364;-1.504;2024-02-28T09:29:01;12.27;;;3.35;;
24409;SDS011;12543;53.364;-1.504;2024-02-28T09:31:28;23.00;;;4.28;;
24409;SDS011;12543;53.364;-1.504;2024-02-28T09:33:56;18.70;;;3.92;;
24409;SDS011;12543;53.364;-1.504;2024-02-28T09:36:25;22.15;;;4.30;;
24409;SDS011;12543;53.364;-1.504;2024-02-28T09:38:53;15.30;;;3.55;;
24409;SDS011;12543;53.364;-1.504;2024-02-28T09:41:20;15.77;;;4.05;;
24409;SDS011;12543;53.364;-1.504;2024-02-28T09:43:48;19.13;;;4.65;;
24409;SDS011;12543;53.364;-1.504;2024-02-28T09:46:17;17.05;;;3.83;;
24409;SDS011;12543;53.364;-1.504;2024-02-28T09:48:44;18.63;;;4.00;;
24409;SDS011;12543;53.364;-1.504;2024-02-28T09:51:22;11.47;;;3.10;;
24409;SDS011;12543;53.364;-1.504;2024-02-28T09:53:54;15.02;;;3.30;;
24409;SDS011;12543;53.364;-1.504;2024-02-28T09:56:23;14.85;;;3.25;;
24409;SDS011;12543;53.364;-1.504;2024-02-28T09:58:51;9.90;;;3.20;;
24409;SDS011;12543;53.364;-1.504;2024-02-28T10:01:21;12.98;;;3.88;;
24409;SDS011;12543;53.364;-1.504;2024-02-28T10:03:50;11.98;;;3.38;;
24409;SDS011;12543;53.364;-1.504;2024-02-28T10:06:19;14.40;;;3.83;;
24409;SDS011;12543;53.364;-1.504;2024-02-28T10:08:47;15.57;;;3.83;;
24409;SDS011;12543;53.364;-1.504;2024-02-28T10:11:18;18.73;;;5.00;;
24409;SDS011;12543;53.364;-1.504;2024-02-28T10:13:47;14.07;;;4.40;;
24409;SDS011;12543;53.364;-1.504;2024-02-28T10:16:15;20.30;;;4.95;;
24409;SDS011;12543;53.364;-1.504;2024-02-28T10:18:43;15.82;;;3.92;;
24409;SDS011;12543;53.364;-1.504;2024-02-28T10:21:11;20.73;;;4.95;;
24409;SDS011;12543;53.364;-1.504;2024-02-28T10:23:41;20.65;;;5.03;;
24409;SDS011;12543;53.364;-1.504;2024-02-28T10:26:09;26.23;;;5.18;;
24409;SDS011;12543;53.364;-1.504;2024-02-28T10:28:37;19.10;;;4.45;;
24409;SDS011;12543;53.364;-1.504;2024-02-28T10:31:06;24.60;;;5.32;;
24409;SDS011;12543;53.364;-1.504;2024-02-28T10:36:03;19.95;;;5.88;;
24409;SDS011;12543;53.364;-1.504;2024-02-28T10:38:32;19.35;;;4.70;;
24409;SDS011;12543;53.364;-1.504;2024-02-28T10:41:00;24.60;;;4.75;;
24409;SDS011;12543;53.364;-1.504;2024-02-28T10:43:29;17.63;;;4.32;;
24409;SDS011;12543;53.364;-1.504;2024-02-28T10:48:45;18.48;;;4.72;;
24409;SDS011;12543;53.364;-1.504;2024-02-28T10:51:15;16.42;;;5.07;;
24409;SDS011;12543;53.364;-1.504;2024-02-28T10:53:43;20.83;;;4.63;;
24409;SDS011;12543;53.364;-1.504;2024-02-28T10:56:12;15.52;;;4.25;;
24409;SDS011;12543;53.364;-1.504;2024-02-28T10:58:50;22.80;;;5.25;;
24409;SDS011;12543;53.364;-1.504;2024-02-28T11:01:18;18.83;;;4.43;;
24409;SDS011;12543;53.364;-1.504;2024-02-28T11:03:49;16.80;;;4.07;;
24409;SDS011;12543;53.364;-1.504;2024-02-28T11:06:18;16.95;;;5.05;;
24409;SDS011;12543;53.364;-1.504;2024-02-28T11:08:48;18.23;;;4.63;;
24409;SDS011;12543;53.364;-1.504;2024-02-28T11:11:20;18.02;;;4.72;;
24409;SDS011;12543;53.364;-1.504;2024-02-28T11:13:54;14.23;;;4.10;;
24409;SDS011;12543;53.364;-1.504;2024-02-28T11:16:26;16.27;;;4.03;;
24409;SDS011;12543;53.364;-1.504;2024-02-28T11:18:54;23.35;;;5.28;;
24409;SDS011;12543;53.364;-1.504;2024-02-28T11:21:25;17.92;;;5.03;;
24409;SDS011;12543;53.364;-1.504;2024-02-28T11:23:57;16.05;;;4.90;;
24409;SDS011;12543;53.364;-1.504;2024-02-28T11:26:25;19.88;;;4.57;;
24409;SDS011;12543;53.364;-1.504;2024-02-28T11:28:54;20.58;;;5.55;;
24409;SDS011;12543;53.364;-1.504;2024-02-28T11:31:24;18.77;;;5.30;;
24409;SDS011;12543;53.364;-1.504;2024-02-28T11:33:51;17.65;;;4.72;;
24409;SDS011;12543;53.364;-1.504;2024-02-28T11:36:19;17.60;;;4.93;;
24409;SDS011;12543;53.364;-1.504;2024-02-28T11:38:47;14.80;;;4.97;;
24409;SDS011;12543;53.364;-1.504;2024-02-28T11:41:14;19.93;;;5.20;;
24409;SDS011;12543;53.364;-1.504;2024-02-28T11:43:52;17.98;;;4.70;;
24409;SDS011;12543;53.364;-1.504;2024-02-28T11:46:20;23.38;;;6.63;;
24409;SDS011;12543;53.364;-1.504;2024-02-28T11:48:48;19.53;;;4.97;;
24409;SDS011;12543;53.364;-1.504;2024-02-28T11:51:15;20.00;;;5.77;;
24409;SDS011;12543;53.364;-1.504;2024-02-28T11:53:43;29.17;;;6.00;;
24409;SDS011;12543;53.364;-1.504;2024-02-28T11:56:11;18.63;;;5.57;;
24409;SDS011;12543;53.364;-1.504;2024-02-28T11:58:50;16.60;;;5.28;;
24409;SDS011;12543;53.364;-1.504;2024-02-28T12:01:18;23.67;;;5.53;;
24409;SDS011;12543;53.364;-1.504;2024-02-28T12:03:46;19.13;;;5.70;;
24409;SDS011;12543;53.364;-1.504;2024-02-28T12:06:13;23.33;;;6.10;;
24409;SDS011;12543;53.364;-1.504;2024-02-28T12:08:41;17.05;;;5.25;;
24409;SDS011;12543;53.364;-1.504;2024-02-28T12:11:08;24.13;;;6.65;;
24409;SDS011;12543;53.364;-1.504;2024-02-28T12:13:37;19.70;;;5.47;;
24409;SDS011;12543;53.364;-1.504;2024-02-28T12:16:05;22.52;;;5.38;;
24409;SDS011;12543;53.364;-1.504;2024-02-28T12:18:32;22.60;;;5.60;;
24409;SDS011;12543;53.364;-1.504;2024-02-28T12:21:01;26.00;;;6.57;;
24409;SDS011;12543;53.364;-1.504;2024-02-28T12:23:28;16.07;;;4.57;;
24409;SDS011;12543;53.364;-1.504;2024-02-28T12:25:56;18.20;;;4.43;;
24409;SDS011;12543;53.364;-1.504;2024-02-28T12:28:23;19.50;;;5.05;;
24409;SDS011;12543;53.364;-1.504;2024-02-28T12:30:51;20.83;;;5.33;;
24409;SDS011;12543;53.364;-1.504;2024-02-28T12:33:20;18.70;;;5.28;;
24409;SDS011;12543;53.364;-1.504;2024-02-28T12:35:49;20.23;;;5.30;;
24409;SDS011;12543;53.364;-1.504;2024-02-28T12:38:17;18.15;;;4.75;;
24409;SDS011;12543;53.364;-1.504;2024-02-28T12:43:13;15.80;;;4.67;;
24409;SDS011;12543;53.364;-1.504;2024-02-28T12:45:41;20.05;;;4.95;;
24409;SDS011;12543;53.364;-1.504;2024-02-28T12:48:09;18.58;;;4.45;;
24409;SDS011;12543;53.364;-1.504;2024-02-28T12:50:40;21.20;;;4.97;;
24409;SDS011;12543;53.364;-1.504;2024-02-28T12:53:07;17.63;;;4.47;;
24409;SDS011;12543;53.364;-1.504;2024-02-28T12:55:35;20.05;;;4.55;;
24409;SDS011;12543;53.364;-1.504;2024-02-28T12:58:02;17.65;;;5.15;;
24409;SDS011;12543;53.364;-1.504;2024-02-28T13:00:32;20.77;;;5.03;;
24409;SDS011;12543;53.364;-1.504;2024-02-28T13:03:01;14.23;;;4.75;;
24409;SDS011;12543;53.364;-1.504;2024-02-28T13:08:00;17.55;;;5.50;;
24409;SDS011;12543;53.364;-1.504;2024-02-28T13:10:27;16.20;;;5.13;;
24409;SDS011;12543;53.364;-1.504;2024-02-28T13:12:55;15.93;;;4.43;;
24409;SDS011;12543;53.364;-1.504;2024-02-28T13:15:23;17.55;;;4.28;;
24409;SDS011;12543;53.364;-1.504;2024-02-28T13:17:51;16.43;;;4.87;;
24409;SDS011;12543;53.364;-1.504;2024-02-28T13:20:19;19.08;;;4.65;;
24409;SDS011;12543;53.364;-1.504;2024-02-28T13:22:46;15.18;;;4.45;;
24409;SDS011;12543;53.364;-1.504;2024-02-28T13:25:14;12.98;;;3.80;;
24409;SDS011;12543;53.364;-1.504;2024-02-28T13:27:42;16.63;;;4.60;;
24409;SDS011;12543;53.364;-1.504;2024-02-28T13:30:09;15.47;;;4.53;;
24409;SDS011;12543;53.364;-1.504;2024-02-28T13:32:37;11.53;;;3.67;;
24409;SDS011;12543;53.364;-1.504;2024-02-28T13:35:05;16.80;;;4.50;;
24409;SDS011;12543;53.364;-1.504;2024-02-28T13:37:32;16.80;;;4.33;;
24409;SDS011;12543;53.364;-1.504;2024-02-28T13:40:00;14.63;;;4.22;;
24409;SDS011;12543;53.364;-1.504;2024-02-28T13:42:28;12.37;;;4.37;;
24409;SDS011;12543;53.364;-1.504;2024-02-28T13:44:55;12.63;;;4.20;;
24409;SDS011;12543;53.364;-1.504;2024-02-28T13:47:23;16.70;;;4.22;;
24409;SDS011;12543;53.364;-1.504;2024-02-28T13:49:51;12.93;;;4.03;;
24409;SDS011;12543;53.364;-1.504;2024-02-28T13:52:18;18.27;;;4.83;;
24409;SDS011;12543;53.364;-1.504;2024-02-28T13:54:46;12.57;;;3.97;;
24409;SDS011;12543;53.364;-1.504;2024-02-28T13:57:14;14.75;;;3.78;;
24409;SDS011;12543;53.364;-1.504;2024-02-28T13:59:42;15.13;;;3.85;;
24409;SDS011;12543;53.364;-1.504;2024-02-28T14:02:09;17.33;;;5.17;;
24409;SDS011;12543;53.364;-1.504;2024-02-28T14:04:38;15.35;;;4.53;;
24409;SDS011;12543;53.364;-1.504;2024-02-28T14:07:08;17.50;;;4.65;;
24409;SDS011;12543;53.364;-1.504;2024-02-28T14:09:36;14.05;;;4.65;;
24409;SDS011;12543;53.364;-1.504;2024-02-28T14:12:06;13.32;;;4.15;;
24409;SDS011;12543;53.364;-1.504;2024-02-28T14:14:34;16.03;;;5.33;;
24409;SDS011;12543;53.364;-1.504;2024-02-28T14:17:01;14.10;;;4.65;;
24409;SDS011;12543;53.364;-1.504;2024-02-28T14:19:29;11.77;;;5.15;;
24409;SDS011;12543;53.364;-1.504;2024-02-28T14:21:57;15.97;;;4.50;;
24409;SDS011;12543;53.364;-1.504;2024-02-28T14:24:25;10.20;;;4.47;;
24409;SDS011;12543;53.364;-1.504;2024-02-28T14:26:52;13.93;;;5.07;;
24409;SDS011;12543;53.364;-1.504;2024-02-28T14:29:20;13.27;;;5.65;;
24409;SDS011;12543;53.364;-1.504;2024-02-28T14:31:48;18.02;;;6.95;;
24409;SDS011;12543;53.364;-1.504;2024-02-28T14:34:15;14.00;;;6.43;;
24409;SDS011;12543;53.364;-1.504;2024-02-28T14:36:43;15.23;;;5.88;;
24409;SDS011;12543;53.364;-1.504;2024-02-28T14:39:10;14.27;;;6.07;;
24409;SDS011;12543;53.364;-1.504;2024-02-28T14:41:45;14.93;;;6.20;;
24409;SDS011;12543;53.364;-1.504;2024-02-28T14:44:13;14.93;;;5.93;;
24409;SDS011;12543;53.364;-1.504;2024-02-28T14:46:43;17.02;;;5.90;;